sensor_id;sensor_type;location;lat;lon;timestamp;P1;durP1;ratioP1;P2;durP2;ratioP2
57333;SDS011;43165;50.998;18.164;2022-09-09T00:04:27;69.80;;;22.20;;
57333;SDS011;43165;50.998;18.164;2022-09-09T00:07:28;77.60;;;23.20;;
57333;SDS011;43165;50.998;18.164;2022-09-09T00:12:15;85.70;;;25.20;;
57333;SDS011;43165;50.998;18.164;2022-09-09T00:15:12;70.60;;;24.50;;
57333;SDS011;43165;50.998;18.164;2022-09-09T00:22:57;56.40;;;22.90;;
57333;SDS011;43165;50.998;18.164;2022-09-09T00:25:40;50.10;;;22.10;;
57333;SDS011;43165;50.998;18.164;2022-09-09T00:28:13;48.90;;;21.90;;
57333;SDS011;43165;50.998;18.164;2022-09-09T00:30:42;48.40;;;22.10;;
57333;SDS011;43165;50.998;18.164;2022-09-09T00:33:11;53.60;;;21.60;;
57333;SDS011;43165;50.998;18.164;2022-09-09T00:35:42;52.80;;;21.70;;
57333;SDS011;43165;50.998;18.164;2022-09-09T00:38:14;47.50;;;21.70;;
57333;SDS011;43165;50.998;18.164;2022-09-09T00:40:50;50.30;;;22.60;;
57333;SDS011;43165;50.998;18.164;2022-09-09T00:43:31;62.20;;;23.00;;
57333;SDS011;43165;50.998;18.164;2022-09-09T00:57:27;340.20;;;22.70;;
57333;SDS011;43165;50.998;18.164;2022-09-09T01:05:55;306.00;;;23.80;;
57333;SDS011;43165;50.998;18.164;2022-09-09T01:17:01;171.80;;;24.10;;
57333;SDS011;43165;50.998;18.164;2022-09-09T01:19:35;110.30;;;22.00;;
57333;SDS011;43165;50.998;18.164;2022-09-09T01:22:10;102.80;;;23.60;;
57333;SDS011;43165;50.998;18.164;2022-09-09T01:24:48;90.00;;;24.40;;
57333;SDS011;43165;50.998;18.164;2022-09-09T01:27:36;94.10;;;27.40;;
57333;SDS011;43165;50.998;18.164;2022-09-09T01:30:04;78.00;;;27.00;;
57333;SDS011;43165;50.998;18.164;2022-09-09T01:32:42;73.70;;;26.60;;
57333;SDS011;43165;50.998;18.164;2022-09-09T01:35:13;73.20;;;27.30;;
57333;SDS011;43165;50.998;18.164;2022-09-09T01:37:44;86.40;;;28.60;;
57333;SDS011;43165;50.998;18.164;2022-09-09T01:40:10;82.20;;;29.00;;
57333;SDS011;43165;50.998;18.164;2022-09-09T01:42:36;87.90;;;30.30;;
57333;SDS011;43165;50.998;18.164;2022-09-09T01:45:02;82.00;;;30.70;;
57333;SDS011;43165;50.998;18.164;2022-09-09T01:47:29;97.30;;;30.60;;
57333;SDS011;43165;50.998;18.164;2022-09-09T01:49:55;91.90;;;31.90;;
57333;SDS011;43165;50.998;18.164;2022-09-09T01:52:21;109.40;;;32.90;;
57333;SDS011;43165;50.998;18.164;2022-09-09T01:54:47;108.60;;;33.90;;
57333;SDS011;43165;50.998;18.164;2022-09-09T02:05:18;128.80;;;35.40;;
57333;SDS011;43165;50.998;18.164;2022-09-09T02:08:08;192.70;;;36.80;;
57333;SDS011;43165;50.998;18.164;2022-09-09T02:13:32;386.20;;;36.60;;
57333;SDS011;43165;50.998;18.164;2022-09-09T02:16:22;264.80;;;35.40;;
57333;SDS011;43165;50.998;18.164;2022-09-09T02:19:08;165.00;;;35.10;;
57333;SDS011;43165;50.998;18.164;2022-09-09T02:21:40;150.20;;;36.00;;
57333;SDS011;43165;50.998;18.164;2022-09-09T02:24:08;141.20;;;34.00;;
57333;SDS011;43165;50.998;18.164;2022-09-09T02:26:37;127.20;;;36.50;;
57333;SDS011;43165;50.998;18.164;2022-09-09T02:29:08;120.50;;;36.10;;
57333;SDS011;43165;50.998;18.164;2022-09-09T02:31:36;131.00;;;36.80;;
57333;SDS011;43165;50.998;18.164;2022-09-09T02:34:03;125.90;;;36.10;;
57333;SDS011;43165;50.998;18.164;2022-09-09T02:36:31;132.00;;;38.40;;
57333;SDS011;43165;50.998;18.164;2022-09-09T02:38:58;137.10;;;39.90;;
57333;SDS011;43165;50.998;18.164;2022-09-09T02:41:32;117.70;;;39.70;;
57333;SDS011;43165;50.998;18.164;2022-09-09T02:43:59;126.80;;;38.50;;
57333;SDS011;43165;50.998;18.164;2022-09-09T02:46:36;113.60;;;40.50;;
57333;SDS011;43165;50.998;18.164;2022-09-09T02:49:10;117.70;;;40.60;;
57333;SDS011;43165;50.998;18.164;2022-09-09T02:54:27;108.00;;;40.40;;
57333;SDS011;43165;50.998;18.164;2022-09-09T02:59:50;105.70;;;41.40;;
57333;SDS011;43165;50.998;18.164;2022-09-09T03:02:17;115.90;;;43.00;;
57333;SDS011;43165;50.998;18.164;2022-09-09T03:04:44;118.10;;;42.60;;
57333;SDS011;43165;50.998;18.164;2022-09-09T03:07:10;113.00;;;42.00;;
57333;SDS011;43165;50.998;18.164;2022-09-09T03:09:36;113.60;;;40.80;;
57333;SDS011;43165;50.998;18.164;2022-09-09T03:12:02;111.60;;;40.80;;
57333;SDS011;43165;50.998;18.164;2022-09-09T03:14:29;94.50;;;35.80;;
57333;SDS011;43165;50.998;18.164;2022-09-09T03:16:55;79.90;;;33.80;;
57333;SDS011;43165;50.998;18.164;2022-09-09T03:19:23;86.80;;;34.70;;
57333;SDS011;43165;50.998;18.164;2022-09-09T03:21:48;92.70;;;36.30;;
57333;SDS011;43165;50.998;18.164;2022-09-09T03:24:14;90.40;;;37.00;;
57333;SDS011;43165;50.998;18.164;2022-09-09T03:26:40;102.60;;;36.90;;
57333;SDS011;43165;50.998;18.164;2022-09-09T03:29:07;95.00;;;33.90;;
57333;SDS011;43165;50.998;18.164;2022-09-09T03:31:33;142.00;;;36.20;;
57333;SDS011;43165;50.998;18.164;2022-09-09T03:34:00;70.80;;;32.10;;
57333;SDS011;43165;50.998;18.164;2022-09-09T03:36:25;73.30;;;31.00;;
57333;SDS011;43165;50.998;18.164;2022-09-09T03:38:52;68.60;;;31.70;;
57333;SDS011;43165;50.998;18.164;2022-09-09T03:41:23;69.80;;;32.70;;
57333;SDS011;43165;50.998;18.164;2022-09-09T03:43:50;69.60;;;32.90;;
57333;SDS011;43165;50.998;18.164;2022-09-09T03:46:17;71.30;;;33.40;;
57333;SDS011;43165;50.998;18.164;2022-09-09T03:48:43;80.80;;;34.40;;
57333;SDS011;43165;50.998;18.164;2022-09-09T03:51:10;94.70;;;37.00;;
57333;SDS011;43165;50.998;18.164;2022-09-09T03:53:35;105.00;;;40.80;;
57333;SDS011;43165;50.998;18.164;2022-09-09T03:56:03;95.20;;;39.30;;
57333;SDS011;43165;50.998;18.164;2022-09-09T03:58:32;90.00;;;38.70;;
57333;SDS011;43165;50.998;18.164;2022-09-09T04:01:00;94.00;;;40.90;;
57333;SDS011;43165;50.998;18.164;2022-09-09T04:03:38;99.90;;;41.40;;
57333;SDS011;43165;50.998;18.164;2022-09-09T04:06:04;82.00;;;38.30;;
57333;SDS011;43165;50.998;18.164;2022-09-09T04:08:32;87.90;;;40.50;;
57333;SDS011;43165;50.998;18.164;2022-09-09T04:10:58;83.00;;;39.50;;
57333;SDS011;43165;50.998;18.164;2022-09-09T04:13:27;81.70;;;41.70;;
57333;SDS011;43165;50.998;18.164;2022-09-09T04:15:57;93.20;;;44.50;;
57333;SDS011;43165;50.998;18.164;2022-09-09T04:18:24;97.10;;;44.10;;
57333;SDS011;43165;50.998;18.164;2022-09-09T04:20:51;113.70;;;47.30;;
57333;SDS011;43165;50.998;18.164;2022-09-09T04:23:17;103.80;;;45.50;;
57333;SDS011;43165;50.998;18.164;2022-09-09T04:25:45;144.00;;;54.60;;
57333;SDS011;43165;50.998;18.164;2022-09-09T04:28:12;157.60;;;55.00;;
57333;SDS011;43165;50.998;18.164;2022-09-09T04:30:41;173.10;;;58.20;;
57333;SDS011;43165;50.998;18.164;2022-09-09T04:33:07;168.50;;;55.80;;
57333;SDS011;43165;50.998;18.164;2022-09-09T04:35:35;177.00;;;59.50;;
57333;SDS011;43165;50.998;18.164;2022-09-09T04:38:01;173.00;;;60.00;;
57333;SDS011;43165;50.998;18.164;2022-09-09T04:40:28;161.20;;;56.40;;
57333;SDS011;43165;50.998;18.164;2022-09-09T04:42:55;144.80;;;55.40;;
57333;SDS011;43165;50.998;18.164;2022-09-09T04:45:22;86.10;;;45.40;;
57333;SDS011;43165;50.998;18.164;2022-09-09T04:47:48;60.60;;;39.80;;
57333;SDS011;43165;50.998;18.164;2022-09-09T04:50:14;47.30;;;35.80;;
57333;SDS011;43165;50.998;18.164;2022-09-09T04:52:41;36.40;;;32.40;;
57333;SDS011;43165;50.998;18.164;2022-09-09T04:55:08;31.70;;;28.60;;
57333;SDS011;43165;50.998;18.164;2022-09-09T04:57:34;29.40;;;26.80;;
57333;SDS011;43165;50.998;18.164;2022-09-09T05:00:01;27.50;;;25.30;;
57333;SDS011;43165;50.998;18.164;2022-09-09T05:02:28;26.80;;;24.60;;
57333;SDS011;43165;50.998;18.164;2022-09-09T05:04:55;26.50;;;24.30;;
57333;SDS011;43165;50.998;18.164;2022-09-09T05:07:21;24.70;;;22.80;;
57333;SDS011;43165;50.998;18.164;2022-09-09T05:09:47;26.30;;;23.80;;
57333;SDS011;43165;50.998;18.164;2022-09-09T05:12:15;25.00;;;22.80;;
57333;SDS011;43165;50.998;18.164;2022-09-09T05:14:42;26.00;;;23.70;;
57333;SDS011;43165;50.998;18.164;2022-09-09T05:17:09;24.00;;;22.30;;
57333;SDS011;43165;50.998;18.164;2022-09-09T05:19:35;22.90;;;20.80;;
57333;SDS011;43165;50.998;18.164;2022-09-09T05:22:01;20.70;;;19.10;;
57333;SDS011;43165;50.998;18.164;2022-09-09T05:24:27;20.90;;;19.50;;
57333;SDS011;43165;50.998;18.164;2022-09-09T05:26:53;20.20;;;18.70;;
57333;SDS011;43165;50.998;18.164;2022-09-09T05:29:19;17.50;;;16.10;;
57333;SDS011;43165;50.998;18.164;2022-09-09T05:31:44;18.30;;;17.10;;
57333;SDS011;43165;50.998;18.164;2022-09-09T05:34:11;17.70;;;16.30;;
57333;SDS011;43165;50.998;18.164;2022-09-09T05:36:37;15.80;;;14.70;;
57333;SDS011;43165;50.998;18.164;2022-09-09T05:39:03;16.40;;;15.30;;
57333;SDS011;43165;50.998;18.164;2022-09-09T05:41:29;15.70;;;14.50;;
57333;SDS011;43165;50.998;18.164;2022-09-09T05:43:54;16.20;;;14.80;;
57333;SDS011;43165;50.998;18.164;2022-09-09T05:46:21;15.50;;;14.50;;
57333;SDS011;43165;50.998;18.164;2022-09-09T05:48:47;15.70;;;14.20;;
57333;SDS011;43165;50.998;18.164;2022-09-09T05:51:20;14.30;;;13.00;;
57333;SDS011;43165;50.998;18.164;2022-09-09T05:53:47;13.10;;;12.10;;
57333;SDS011;43165;50.998;18.164;2022-09-09T05:56:15;13.00;;;11.90;;
57333;SDS011;43165;50.998;18.164;2022-09-09T05:58:46;12.20;;;11.50;;
57333;SDS011;43165;50.998;18.164;2022-09-09T06:01:33;11.80;;;11.00;;
57333;SDS011;43165;50.998;18.164;2022-09-09T06:03:58;11.60;;;10.80;;
57333;SDS011;43165;50.998;18.164;2022-09-09T06:06:30;11.20;;;10.40;;
57333;SDS011;43165;50.998;18.164;2022-09-09T06:09:00;11.70;;;10.80;;
57333;SDS011;43165;50.998;18.164;2022-09-09T06:11:26;11.70;;;10.80;;
57333;SDS011;43165;50.998;18.164;2022-09-09T06:13:56;11.40;;;10.60;;
57333;SDS011;43165;50.998;18.164;2022-09-09T06:16:23;12.40;;;11.60;;
57333;SDS011;43165;50.998;18.164;2022-09-09T06:18:50;11.90;;;10.80;;
57333;SDS011;43165;50.998;18.164;2022-09-09T06:21:17;11.60;;;10.90;;
57333;SDS011;43165;50.998;18.164;2022-09-09T06:23:44;15.50;;;11.40;;
57333;SDS011;43165;50.998;18.164;2022-09-09T06:26:15;12.10;;;11.00;;
57333;SDS011;43165;50.998;18.164;2022-09-09T06:28:46;10.70;;;10.10;;
57333;SDS011;43165;50.998;18.164;2022-09-09T06:31:13;10.80;;;10.10;;
57333;SDS011;43165;50.998;18.164;2022-09-09T06:33:42;11.60;;;10.90;;
57333;SDS011;43165;50.998;18.164;2022-09-09T06:36:10;11.30;;;10.50;;
57333;SDS011;43165;50.998;18.164;2022-09-09T06:38:37;9.80;;;9.10;;
57333;SDS011;43165;50.998;18.164;2022-09-09T06:41:03;9.70;;;9.10;;
57333;SDS011;43165;50.998;18.164;2022-09-09T06:43:31;9.40;;;8.80;;
57333;SDS011;43165;50.998;18.164;2022-09-09T06:45:58;9.80;;;9.00;;
57333;SDS011;43165;50.998;18.164;2022-09-09T06:48:33;9.80;;;9.20;;
57333;SDS011;43165;50.998;18.164;2022-09-09T06:51:02;9.60;;;8.80;;
57333;SDS011;43165;50.998;18.164;2022-09-09T06:53:34;8.70;;;8.20;;
57333;SDS011;43165;50.998;18.164;2022-09-09T06:58:39;8.10;;;7.60;;
57333;SDS011;43165;50.998;18.164;2022-09-09T07:01:08;7.80;;;7.20;;
57333;SDS011;43165;50.998;18.164;2022-09-09T07:03:34;7.90;;;7.30;;
57333;SDS011;43165;50.998;18.164;2022-09-09T07:06:00;8.40;;;7.80;;
57333;SDS011;43165;50.998;18.164;2022-09-09T07:08:27;7.40;;;6.50;;
57333;SDS011;43165;50.998;18.164;2022-09-09T07:10:53;6.70;;;6.30;;
57333;SDS011;43165;50.998;18.164;2022-09-09T07:13:23;7.10;;;6.60;;
57333;SDS011;43165;50.998;18.164;2022-09-09T07:15:52;6.90;;;6.30;;
57333;SDS011;43165;50.998;18.164;2022-09-09T07:18:18;7.20;;;6.70;;
57333;SDS011;43165;50.998;18.164;2022-09-09T07:20:53;7.60;;;7.00;;
57333;SDS011;43165;50.998;18.164;2022-09-09T07:23:20;7.40;;;6.90;;
57333;SDS011;43165;50.998;18.164;2022-09-09T07:25:45;7.40;;;6.70;;
57333;SDS011;43165;50.998;18.164;2022-09-09T07:28:13;7.10;;;6.70;;
57333;SDS011;43165;50.998;18.164;2022-09-09T07:30:39;7.00;;;6.50;;
57333;SDS011;43165;50.998;18.164;2022-09-09T07:33:05;7.80;;;7.30;;
57333;SDS011;43165;50.998;18.164;2022-09-09T07:35:31;7.60;;;6.90;;
57333;SDS011;43165;50.998;18.164;2022-09-09T07:37:57;5.20;;;4.80;;
57333;SDS011;43165;50.998;18.164;2022-09-09T07:40:23;5.30;;;4.90;;
57333;SDS011;43165;50.998;18.164;2022-09-09T07:42:50;5.60;;;5.20;;
57333;SDS011;43165;50.998;18.164;2022-09-09T07:45:15;5.70;;;4.80;;
57333;SDS011;43165;50.998;18.164;2022-09-09T07:47:41;4.20;;;3.90;;
57333;SDS011;43165;50.998;18.164;2022-09-09T07:50:08;4.80;;;4.30;;
57333;SDS011;43165;50.998;18.164;2022-09-09T07:52:35;4.50;;;3.80;;
57333;SDS011;43165;50.998;18.164;2022-09-09T07:55:01;3.70;;;3.40;;
57333;SDS011;43165;50.998;18.164;2022-09-09T07:57:31;3.50;;;2.70;;
57333;SDS011;43165;50.998;18.164;2022-09-09T07:59:56;2.70;;;2.60;;
57333;SDS011;43165;50.998;18.164;2022-09-09T08:02:23;5.50;;;2.60;;
57333;SDS011;43165;50.998;18.164;2022-09-09T08:04:50;3.20;;;2.50;;
57333;SDS011;43165;50.998;18.164;2022-09-09T08:07:16;4.10;;;2.30;;
57333;SDS011;43165;50.998;18.164;2022-09-09T08:09:42;2.40;;;2.10;;
57333;SDS011;43165;50.998;18.164;2022-09-09T08:12:09;3.00;;;2.00;;
57333;SDS011;43165;50.998;18.164;2022-09-09T08:14:38;3.10;;;1.90;;
57333;SDS011;43165;50.998;18.164;2022-09-09T08:17:04;1.70;;;1.60;;
57333;SDS011;43165;50.998;18.164;2022-09-09T08:19:29;3.30;;;2.10;;
57333;SDS011;43165;50.998;18.164;2022-09-09T08:21:56;2.90;;;2.70;;
57333;SDS011;43165;50.998;18.164;2022-09-09T08:24:21;2.10;;;1.70;;
57333;SDS011;43165;50.998;18.164;2022-09-09T08:26:48;4.50;;;1.90;;
57333;SDS011;43165;50.998;18.164;2022-09-09T08:29:14;3.10;;;1.60;;
57333;SDS011;43165;50.998;18.164;2022-09-09T08:31:44;3.20;;;1.20;;
57333;SDS011;43165;50.998;18.164;2022-09-09T08:34:16;2.40;;;1.10;;
57333;SDS011;43165;50.998;18.164;2022-09-09T08:36:46;3.00;;;1.10;;
57333;SDS011;43165;50.998;18.164;2022-09-09T08:39:14;1.70;;;1.10;;
57333;SDS011;43165;50.998;18.164;2022-09-09T08:53:04;1.20;;;1.10;;
57333;SDS011;43165;50.998;18.164;2022-09-09T08:55:41;1.70;;;1.30;;
57333;SDS011;43165;50.998;18.164;2022-09-09T08:58:15;2.90;;;1.10;;
57333;SDS011;43165;50.998;18.164;2022-09-09T09:11:26;2.60;;;1.10;;
57333;SDS011;43165;50.998;18.164;2022-09-09T09:13:57;8.50;;;1.50;;
57333;SDS011;43165;50.998;18.164;2022-09-09T09:16:35;3.20;;;1.10;;
57333;SDS011;43165;50.998;18.164;2022-09-09T09:19:05;3.80;;;1.20;;
57333;SDS011;43165;50.998;18.164;2022-09-09T09:21:39;2.60;;;1.20;;
57333;SDS011;43165;50.998;18.164;2022-09-09T09:29:16;5.60;;;1.50;;
57333;SDS011;43165;50.998;18.164;2022-09-09T09:31:53;1.70;;;1.30;;
57333;SDS011;43165;50.998;18.164;2022-09-09T09:34:21;1.40;;;1.30;;
57333;SDS011;43165;50.998;18.164;2022-09-09T09:36:52;2.40;;;1.20;;
57333;SDS011;43165;50.998;18.164;2022-09-09T09:39:24;2.80;;;1.10;;
57333;SDS011;43165;50.998;18.164;2022-09-09T09:41:51;4.00;;;1.30;;
57333;SDS011;43165;50.998;18.164;2022-09-09T09:44:24;1.70;;;1.10;;
57333;SDS011;43165;50.998;18.164;2022-09-09T09:46:50;5.80;;;1.50;;
57333;SDS011;43165;50.998;18.164;2022-09-09T09:49:16;2.60;;;1.60;;
57333;SDS011;43165;50.998;18.164;2022-09-09T09:51:42;1.80;;;1.30;;
57333;SDS011;43165;50.998;18.164;2022-09-09T09:54:15;1.20;;;1.10;;
57333;SDS011;43165;50.998;18.164;2022-09-09T09:56:46;1.60;;;1.10;;
57333;SDS011;43165;50.998;18.164;2022-09-09T10:02:19;1.90;;;1.20;;
57333;SDS011;43165;50.998;18.164;2022-09-09T10:05:00;2.90;;;1.00;;
57333;SDS011;43165;50.998;18.164;2022-09-09T10:07:27;1.20;;;0.90;;
57333;SDS011;43165;50.998;18.164;2022-09-09T10:09:53;3.30;;;1.10;;
57333;SDS011;43165;50.998;18.164;2022-09-09T10:12:26;3.50;;;1.20;;
57333;SDS011;43165;50.998;18.164;2022-09-09T10:15:07;1.80;;;1.00;;
57333;SDS011;43165;50.998;18.164;2022-09-09T10:17:54;1.70;;;1.00;;
57333;SDS011;43165;50.998;18.164;2022-09-09T10:26:11;3.50;;;1.10;;
57333;SDS011;43165;50.998;18.164;2022-09-09T10:28:51;1.10;;;0.80;;
57333;SDS011;43165;50.998;18.164;2022-09-09T10:37:28;10.20;;;1.10;;
57333;SDS011;43165;50.998;18.164;2022-09-09T10:43:12;2.30;;;0.80;;
57333;SDS011;43165;50.998;18.164;2022-09-09T10:46:12;3.30;;;1.40;;
57333;SDS011;43165;50.998;18.164;2022-09-09T10:56:43;0.80;;;0.80;;
57333;SDS011;43165;50.998;18.164;2022-09-09T10:59:12;2.40;;;1.00;;
57333;SDS011;43165;50.998;18.164;2022-09-09T11:01:49;2.90;;;0.80;;
57333;SDS011;43165;50.998;18.164;2022-09-09T11:04:24;1.90;;;0.80;;
57333;SDS011;43165;50.998;18.164;2022-09-09T11:06:55;3.10;;;0.80;;
57333;SDS011;43165;50.998;18.164;2022-09-09T11:09:22;1.90;;;0.80;;
57333;SDS011;43165;50.998;18.164;2022-09-09T11:11:52;1.30;;;0.70;;
57333;SDS011;43165;50.998;18.164;2022-09-09T11:14:21;1.50;;;0.90;;
57333;SDS011;43165;50.998;18.164;2022-09-09T11:17:06;2.10;;;0.70;;
57333;SDS011;43165;50.998;18.164;2022-09-09T11:19:40;1.60;;;0.70;;
57333;SDS011;43165;50.998;18.164;2022-09-09T11:22:14;1.00;;;0.90;;
57333;SDS011;43165;50.998;18.164;2022-09-09T11:25:05;2.00;;;1.00;;
57333;SDS011;43165;50.998;18.164;2022-09-09T11:27:38;1.30;;;0.80;;
57333;SDS011;43165;50.998;18.164;2022-09-09T11:33:36;3.00;;;1.10;;
57333;SDS011;43165;50.998;18.164;2022-09-09T11:41:40;2.70;;;0.90;;
57333;SDS011;43165;50.998;18.164;2022-09-09T11:44:12;2.40;;;1.10;;
57333;SDS011;43165;50.998;18.164;2022-09-09T11:46:49;2.90;;;1.00;;
57333;SDS011;43165;50.998;18.164;2022-09-09T11:55:11;2.50;;;1.20;;
57333;SDS011;43165;50.998;18.164;2022-09-09T11:58:03;4.80;;;1.00;;
57333;SDS011;43165;50.998;18.164;2022-09-09T12:02:59;2.00;;;1.20;;
57333;SDS011;43165;50.998;18.164;2022-09-09T12:05:42;1.50;;;0.70;;
57333;SDS011;43165;50.998;18.164;2022-09-09T12:08:10;1.70;;;0.90;;
57333;SDS011;43165;50.998;18.164;2022-09-09T12:10:40;3.60;;;0.80;;
57333;SDS011;43165;50.998;18.164;2022-09-09T12:13:16;2.00;;;0.70;;
57333;SDS011;43165;50.998;18.164;2022-09-09T12:15:49;2.20;;;0.90;;
57333;SDS011;43165;50.998;18.164;2022-09-09T12:18:26;1.50;;;0.70;;
57333;SDS011;43165;50.998;18.164;2022-09-09T12:21:14;1.10;;;0.80;;
57333;SDS011;43165;50.998;18.164;2022-09-09T12:23:57;1.60;;;0.80;;
57333;SDS011;43165;50.998;18.164;2022-09-09T12:26:53;1.60;;;0.80;;
57333;SDS011;43165;50.998;18.164;2022-09-09T12:29:27;2.70;;;0.80;;
57333;SDS011;43165;50.998;18.164;2022-09-09T12:37:14;3.20;;;0.80;;
57333;SDS011;43165;50.998;18.164;2022-09-09T12:42:54;1.10;;;0.70;;
57333;SDS011;43165;50.998;18.164;2022-09-09T12:45:21;1.70;;;0.70;;
57333;SDS011;43165;50.998;18.164;2022-09-09T12:47:53;2.60;;;0.80;;
57333;SDS011;43165;50.998;18.164;2022-09-09T12:50:38;1.00;;;0.70;;
57333;SDS011;43165;50.998;18.164;2022-09-09T12:53:29;1.70;;;0.70;;
57333;SDS011;43165;50.998;18.164;2022-09-09T12:58:33;1.30;;;0.70;;
57333;SDS011;43165;50.998;18.164;2022-09-09T13:01:00;2.10;;;0.70;;
57333;SDS011;43165;50.998;18.164;2022-09-09T13:03:30;2.10;;;0.80;;
57333;SDS011;43165;50.998;18.164;2022-09-09T13:05:58;3.50;;;0.80;;
57333;SDS011;43165;50.998;18.164;2022-09-09T13:08:27;2.20;;;0.80;;
57333;SDS011;43165;50.998;18.164;2022-09-09T13:10:54;1.50;;;0.80;;
57333;SDS011;43165;50.998;18.164;2022-09-09T13:13:23;2.10;;;0.70;;
57333;SDS011;43165;50.998;18.164;2022-09-09T13:15:56;1.70;;;0.90;;
57333;SDS011;43165;50.998;18.164;2022-09-09T13:18:28;1.50;;;0.90;;
57333;SDS011;43165;50.998;18.164;2022-09-09T13:20:56;1.80;;;1.00;;
57333;SDS011;43165;50.998;18.164;2022-09-09T13:23:29;2.40;;;0.90;;
57333;SDS011;43165;50.998;18.164;2022-09-09T13:26:00;2.40;;;1.20;;
57333;SDS011;43165;50.998;18.164;2022-09-09T13:28:31;2.40;;;1.00;;
57333;SDS011;43165;50.998;18.164;2022-09-09T13:31:01;1.40;;;0.70;;
57333;SDS011;43165;50.998;18.164;2022-09-09T13:33:31;1.90;;;1.00;;
57333;SDS011;43165;50.998;18.164;2022-09-09T13:38:31;2.10;;;0.80;;
57333;SDS011;43165;50.998;18.164;2022-09-09T13:43:30;3.20;;;0.80;;
57333;SDS011;43165;50.998;18.164;2022-09-09T13:46:00;2.90;;;1.10;;
57333;SDS011;43165;50.998;18.164;2022-09-09T13:48:28;4.90;;;0.90;;
57333;SDS011;43165;50.998;18.164;2022-09-09T13:51:01;4.50;;;1.00;;
57333;SDS011;43165;50.998;18.164;2022-09-09T13:53:30;2.90;;;0.90;;
57333;SDS011;43165;50.998;18.164;2022-09-09T13:55:56;1.40;;;0.70;;
57333;SDS011;43165;50.998;18.164;2022-09-09T13:58:22;2.30;;;0.80;;
57333;SDS011;43165;50.998;18.164;2022-09-09T14:00:50;1.40;;;0.70;;
57333;SDS011;43165;50.998;18.164;2022-09-09T14:03:16;1.90;;;0.60;;
57333;SDS011;43165;50.998;18.164;2022-09-09T14:05:43;2.60;;;0.70;;
57333;SDS011;43165;50.998;18.164;2022-09-09T14:08:11;1.70;;;0.80;;
57333;SDS011;43165;50.998;18.164;2022-09-09T14:10:47;3.50;;;0.80;;
57333;SDS011;43165;50.998;18.164;2022-09-09T14:13:12;10.40;;;0.80;;
57333;SDS011;43165;50.998;18.164;2022-09-09T14:15:38;5.20;;;1.00;;
57333;SDS011;43165;50.998;18.164;2022-09-09T14:18:04;3.80;;;1.10;;
57333;SDS011;43165;50.998;18.164;2022-09-09T14:20:29;3.30;;;1.00;;
57333;SDS011;43165;50.998;18.164;2022-09-09T14:22:55;1.90;;;0.80;;
57333;SDS011;43165;50.998;18.164;2022-09-09T14:25:22;1.40;;;0.80;;
57333;SDS011;43165;50.998;18.164;2022-09-09T14:27:49;5.30;;;0.90;;
57333;SDS011;43165;50.998;18.164;2022-09-09T14:30:16;3.50;;;0.90;;
57333;SDS011;43165;50.998;18.164;2022-09-09T14:32:42;1.60;;;0.70;;
57333;SDS011;43165;50.998;18.164;2022-09-09T14:35:08;1.60;;;0.70;;
57333;SDS011;43165;50.998;18.164;2022-09-09T14:37:33;3.90;;;0.80;;
57333;SDS011;43165;50.998;18.164;2022-09-09T14:39:59;2.10;;;0.80;;
57333;SDS011;43165;50.998;18.164;2022-09-09T14:42:24;1.50;;;0.80;;
57333;SDS011;43165;50.998;18.164;2022-09-09T14:44:51;2.80;;;0.80;;
57333;SDS011;43165;50.998;18.164;2022-09-09T14:47:16;3.80;;;1.10;;
57333;SDS011;43165;50.998;18.164;2022-09-09T14:49:42;1.80;;;0.90;;
57333;SDS011;43165;50.998;18.164;2022-09-09T14:52:08;2.40;;;1.00;;
57333;SDS011;43165;50.998;18.164;2022-09-09T14:54:34;2.10;;;0.80;;
57333;SDS011;43165;50.998;18.164;2022-09-09T14:57:00;2.40;;;0.80;;
57333;SDS011;43165;50.998;18.164;2022-09-09T14:59:25;3.70;;;0.70;;
57333;SDS011;43165;50.998;18.164;2022-09-09T15:01:52;2.20;;;1.00;;
57333;SDS011;43165;50.998;18.164;2022-09-09T15:04:18;3.30;;;1.50;;
57333;SDS011;43165;50.998;18.164;2022-09-09T15:06:43;2.20;;;1.10;;
57333;SDS011;43165;50.998;18.164;2022-09-09T15:09:13;9.00;;;1.50;;
57333;SDS011;43165;50.998;18.164;2022-09-09T15:11:39;2.90;;;1.00;;
57333;SDS011;43165;50.998;18.164;2022-09-09T15:14:05;5.50;;;1.80;;
57333;SDS011;43165;50.998;18.164;2022-09-09T15:16:33;5.10;;;1.20;;
57333;SDS011;43165;50.998;18.164;2022-09-09T15:18:59;4.40;;;1.10;;
57333;SDS011;43165;50.998;18.164;2022-09-09T15:21:26;6.30;;;1.30;;
57333;SDS011;43165;50.998;18.164;2022-09-09T15:23:53;6.00;;;1.20;;
57333;SDS011;43165;50.998;18.164;2022-09-09T15:26:20;2.60;;;1.00;;
57333;SDS011;43165;50.998;18.164;2022-09-09T15:28:46;3.70;;;1.10;;
57333;SDS011;43165;50.998;18.164;2022-09-09T15:31:13;6.90;;;1.00;;
57333;SDS011;43165;50.998;18.164;2022-09-09T15:33:49;8.30;;;2.50;;
57333;SDS011;43165;50.998;18.164;2022-09-09T15:36:19;7.60;;;1.70;;
57333;SDS011;43165;50.998;18.164;2022-09-09T15:41:15;3.60;;;1.20;;
57333;SDS011;43165;50.998;18.164;2022-09-09T15:43:45;1.40;;;1.10;;
57333;SDS011;43165;50.998;18.164;2022-09-09T15:48:53;4.60;;;1.40;;
57333;SDS011;43165;50.998;18.164;2022-09-09T15:51:39;2.90;;;1.00;;
57333;SDS011;43165;50.998;18.164;2022-09-09T15:54:07;26.30;;;2.40;;
57333;SDS011;43165;50.998;18.164;2022-09-09T15:56:34;10.90;;;1.80;;
57333;SDS011;43165;50.998;18.164;2022-09-09T15:59:00;13.80;;;1.70;;
57333;SDS011;43165;50.998;18.164;2022-09-09T16:01:28;8.00;;;1.70;;
57333;SDS011;43165;50.998;18.164;2022-09-09T16:03:56;3.50;;;1.20;;
57333;SDS011;43165;50.998;18.164;2022-09-09T16:06:22;3.90;;;1.50;;
57333;SDS011;43165;50.998;18.164;2022-09-09T16:08:49;3.00;;;1.80;;
57333;SDS011;43165;50.998;18.164;2022-09-09T16:11:17;7.50;;;2.20;;
57333;SDS011;43165;50.998;18.164;2022-09-09T16:13:51;9.80;;;2.70;;
57333;SDS011;43165;50.998;18.164;2022-09-09T16:16:18;8.70;;;2.90;;
57333;SDS011;43165;50.998;18.164;2022-09-09T16:18:47;14.70;;;3.10;;
57333;SDS011;43165;50.998;18.164;2022-09-09T16:21:16;6.60;;;1.90;;
57333;SDS011;43165;50.998;18.164;2022-09-09T16:23:44;5.60;;;2.20;;
57333;SDS011;43165;50.998;18.164;2022-09-09T16:26:13;9.80;;;2.30;;
57333;SDS011;43165;50.998;18.164;2022-09-09T16:28:40;7.30;;;2.40;;
57333;SDS011;43165;50.998;18.164;2022-09-09T16:31:07;5.80;;;2.70;;
57333;SDS011;43165;50.998;18.164;2022-09-09T16:33:35;9.60;;;2.70;;
57333;SDS011;43165;50.998;18.164;2022-09-09T16:36:11;3.90;;;2.30;;
57333;SDS011;43165;50.998;18.164;2022-09-09T16:38:39;11.50;;;3.40;;
57333;SDS011;43165;50.998;18.164;2022-09-09T16:41:05;9.30;;;5.00;;
57333;SDS011;43165;50.998;18.164;2022-09-09T16:43:34;8.80;;;6.10;;
57333;SDS011;43165;50.998;18.164;2022-09-09T16:46:09;13.30;;;7.00;;
57333;SDS011;43165;50.998;18.164;2022-09-09T16:48:43;18.60;;;8.20;;
57333;SDS011;43165;50.998;18.164;2022-09-09T16:51:29;12.60;;;8.20;;
57333;SDS011;43165;50.998;18.164;2022-09-09T16:53:57;8.30;;;6.00;;
57333;SDS011;43165;50.998;18.164;2022-09-09T16:56:26;5.50;;;3.60;;
57333;SDS011;43165;50.998;18.164;2022-09-09T16:58:56;5.30;;;3.10;;
57333;SDS011;43165;50.998;18.164;2022-09-09T17:01:26;7.40;;;3.60;;
57333;SDS011;43165;50.998;18.164;2022-09-09T17:03:54;8.70;;;3.90;;
57333;SDS011;43165;50.998;18.164;2022-09-09T17:06:20;6.70;;;3.70;;